Time;durP1;ratioP1;P1;durP2;ratioP2;P2;SDS_P1;SDS_P2;PMS_P1;PMS_P2;Temp;Humidity;BMP_temperature;BMP_pressure;BME280_temperature;BME280_humidity;BME280_pressure;Samples;Min_cycle;Max_cycle;Signal;HPM_P1;HPM_P2
2021/09/02 00:01:08;;;;;;;;;;;;;;;-144.99;97.93;52301.34;5032047;28;19990;-69
2021/09/02 00:03:34;;;;;;;;;;;;;;;-144.99;97.72;52346.19;5055576;28;19975;-69
2021/09/02 00:06:01;;;;;;;;;;;;;;;-144.99;97.18;52301.34;5055255;28;19981;-69
2021/09/02 00:08:28;;;;;;;;;;;;;;;-144.99;96.91;52317.66;5052194;28;20067;-69
2021/09/02 00:10:55;;;;;;;;;;;;;;;-144.99;96.77;52305.41;5051633;28;20429;-69
2021/09/02 00:13:21;;;;;;;;;;;;;;;-144.99;97.17;52299.31;5034301;28;20009;-69
2021/09/02 00:15:48;;;;;;;;;;;;;;;-144.99;97.18;52309.50;5034780;28;19981;-69
2021/09/02 00:18:14;;;;;;;;;;;;;;;-144.99;97.97;52382.88;5033635;28;19996;-69
2021/09/02 00:20:40;;;;;;;;;;;;;;;-144.99;97.84;52313.56;5043299;28;19975;-69
2021/09/02 00:23:07;;;;;;;;;;;;;;;-144.99;98.00;52329.88;5030009;28;19979;-69
2021/09/02 00:25:34;;;;;;;;;;;;;;;-144.99;98.07;52325.81;5029916;28;19999;-69
2021/09/02 00:28:01;;;;;;;;;;;;;;;-144.99;97.78;52305.41;5030022;28;20004;-69
2021/09/02 00:30:27;;;;;;;;;;;;;;;-144.99;97.60;52301.34;5040730;28;20007;-69
2021/09/02 00:32:54;;;;;;;;;;;;;;;-144.99;97.38;52342.09;5056009;28;19983;-69
2021/09/02 00:35:20;;;;;;;;;;;;;;;-144.99;97.36;52317.66;5039603;28;20009;-68
2021/09/02 00:37:46;;;;;;;;;;;;;;;-144.99;97.49;52309.50;5039686;28;20014;-68
2021/09/02 00:40:13;;;;;;;;;;;;;;;-144.99;97.48;52293.19;5038080;28;20360;-67
2021/09/02 00:42:40;;;;;;;;;;;;;;;-144.99;97.59;52329.88;5036756;28;20061;-69
2021/09/02 00:45:07;;;;;;;;;;;;;;;-144.99;97.55;52313.56;5036894;28;19982;-70
2021/09/02 00:47:33;;;;;;;;;;;;;;;-144.99;97.32;52309.50;5036953;28;19996;-70
2021/09/02 00:50:00;;;;;;;;;;;;;;;-144.99;96.88;52315.59;5036395;28;20447;-71
2021/09/02 00:52:27;;;;;;;;;;;;;;;-144.99;96.68;52293.19;5035867;28;19980;-71
2021/09/02 00:54:55;;;;;;;;;;;;;;;-144.99;96.42;52293.19;5038272;28;20349;-71
2021/09/02 00:57:23;;;;;;;;;;;;;;;-144.99;96.13;52327.84;5049504;28;20346;-71
2021/09/02 00:59:51;;;;;;;;;;;;;;;-144.99;96.28;52350.25;5036188;28;19996;-70
2021/09/02 01:02:18;;;;;;;;;;;;;;;-144.99;95.89;52327.84;5056394;28;19976;-71
2021/09/02 01:04:44;;;;;;;;;;;;;;;-144.99;95.66;52323.75;5056490;28;19975;-70
2021/09/02 01:07:11;;;;;;;;;;;;;;;-144.99;95.65;52333.94;5063548;28;20001;-72
2021/09/02 01:09:37;;;;;;;;;;;;;;;-144.99;95.33;52309.50;5053655;28;20006;-72
2021/09/02 01:12:22;;;;;;;;;;;;;;;-144.99;95.28;52325.81;5044054;28;19980;-71
2021/09/02 01:14:49;;;;;;;;;;;;;;;-144.99;95.29;52276.88;5036253;28;19997;-71
2021/09/02 01:17:16;;;;;;;;;;;;;;;-144.99;95.26;52325.81;5039423;28;19996;-74
2021/09/02 01:19:44;;;;;;;;;;;;;;;-144.99;95.67;52287.06;5047809;28;19991;-73
2021/09/02 01:22:10;;;;;;;;;;;;;;;-144.99;95.53;52309.50;5043978;28;19984;-73
2021/09/02 01:24:38;;;;;;;;;;;;;;;-144.99;95.41;52285.03;5036057;28;20434;-73
2021/09/02 01:27:04;;;;;;;;;;;;;;;-144.99;95.20;52325.81;5049640;28;20457;-75
2021/09/02 01:29:31;;;;;;;;;;;;;;;-144.99;95.67;52305.41;5039998;28;20232;-75
2021/09/02 01:31:58;;;;;;;;;;;;;;;-144.99;95.75;52336.00;5058483;28;19977;-75
2021/09/02 01:34:24;;;;;;;;;;;;;;;-144.99;96.32;52297.25;5051955;28;19998;-75
2021/09/02 01:36:51;;;;;;;;;;;;;;;-144.99;96.79;52333.94;5051378;28;19996;-74
2021/09/02 01:39:18;;;;;;;;;;;;;;;-144.99;96.97;52317.66;5040777;28;19976;-70
2021/09/02 01:41:45;;;;;;;;;;;;;;;-144.99;97.33;52297.25;5035346;28;19985;-71
2021/09/02 01:44:12;;;;;;;;;;;;;;;-144.99;97.80;52301.34;5036271;28;19987;-70
2021/09/02 01:46:38;;;;;;;;;;;;;;;-144.99;98.04;52317.66;5031868;28;19999;-70
2021/09/02 01:49:05;;;;;;;;;;;;;;;-144.99;98.44;52333.94;5032446;28;20322;-70
2021/09/02 01:51:31;;;;;;;;;;;;;;;-144.99;98.56;52313.56;5045509;28;19984;-69
2021/09/02 01:53:57;;;;;;;;;;;;;;;-144.99;98.85;52325.81;5044600;28;20003;-70
2021/09/02 01:56:24;;;;;;;;;;;;;;;-144.99;99.12;52303.38;5060188;28;19981;-70
2021/09/02 01:58:51;;;;;;;;;;;;;;;-144.99;98.94;52342.09;5039415;28;19984;-72
2021/09/02 02:01:18;;;;;;;;;;;;;;;-144.99;98.96;52317.66;5052855;28;19976;-71
2021/09/02 02:03:46;;;;;;;;;;;;;;;-144.99;98.77;52327.84;5057881;28;19975;-71
2021/09/02 02:06:12;;;;;;;;;;;;;;;-144.99;99.21;52354.34;5053198;28;19976;-70
2021/09/02 02:08:39;;;;;;;;;;;;;;;-144.99;99.28;52319.69;5057032;28;19991;-71
2021/09/02 02:11:05;;;;;;;;;;;;;;;-144.99;99.67;52291.16;5050063;28;20076;-70
2021/09/02 02:13:34;;;;;;;;;;;;;;;-144.99;100.00;52309.50;5032109;28;19987;-70
2021/09/02 02:16:02;;;;;;;;;;;;;;;-144.99;100.00;52333.94;5036431;28;20005;-71
2021/09/02 02:18:28;;;;;;;;;;;;;;;-144.99;100.00;52321.72;5045305;28;20039;-71
2021/09/02 02:20:55;;;;;;;;;;;;;;;-144.99;100.00;52372.69;5054935;28;19976;-70
2021/09/02 02:23:21;;;;;;;;;;;;;;;-144.99;100.00;52329.88;5032274;28;19980;-70
2021/09/02 02:25:47;;;;;;;;;;;;;;;-144.99;100.00;52342.09;5038173;28;19988;-70
2021/09/02 02:28:14;;;;;;;;;;;;;;;-144.99;100.00;52346.19;5038841;28;20001;-71
2021/09/02 02:30:40;;;;;;;;;;;;;;;-144.99;100.00;52313.56;5046780;28;20460;-70
2021/09/02 02:33:08;;;;;;;;;;;;;;;-144.99;99.86;52323.75;5054661;28;19989;-69
2021/09/02 02:35:34;;;;;;;;;;;;;;;-144.99;99.53;52325.81;5031640;28;19936;-70
2021/09/02 02:38:00;;;;;;;;;;;;;;;-144.99;99.47;52354.34;5036030;28;19967;-65
2021/09/02 02:40:27;;;;;;;;;;;;;;;-144.99;100.00;52313.56;5031527;28;19987;-65
2021/09/02 02:42:54;;;;;;;;;;;;;;;-144.99;100.00;52354.34;5031409;28;20419;-66
2021/09/02 02:45:20;;;;;;;;;;;;;;;-144.99;100.00;52325.81;5031296;28;20456;-62
2021/09/02 02:47:46;;;;;;;;;;;;;;;-144.99;99.71;52289.13;5031177;28;19997;-63
2021/09/02 02:50:14;;;;;;;;;;;;;;;-144.99;99.81;52309.50;5031363;28;19981;-63
2021/09/02 02:52:40;;;;;;;;;;;;;;;-144.99;99.64;52350.25;5031188;28;20002;-64
2021/09/02 02:55:07;;;;;;;;;;;;;;;-144.99;99.51;52342.09;5036884;28;19992;-64
2021/09/02 02:57:34;;;;;;;;;;;;;;;-144.99;99.19;52325.81;5039113;28;20000;-64
2021/09/02 03:00:00;;;;;;;;;;;;;;;-144.99;98.82;52338.03;5031179;28;20468;-65
2021/09/02 03:02:26;;;;;;;;;;;;;;;-144.99;98.56;52340.06;5051935;28;20340;-64
2021/09/02 03:04:53;;;;;;;;;;;;;;;-144.99;98.26;52333.94;5051442;28;19977;-64
2021/09/02 03:07:20;;;;;;;;;;;;;;;-144.99;98.44;52323.75;5060077;28;19990;-64
2021/09/02 03:09:47;;;;;;;;;;;;;;;-144.99;98.44;52293.19;5049932;28;19980;-64
2021/09/02 03:12:13;;;;;;;;;;;;;;;-144.99;98.47;52317.66;5037526;28;19979;-70
2021/09/02 03:14:39;;;;;;;;;;;;;;;-144.99;98.46;52295.22;5031520;28;19996;-71
2021/09/02 03:17:06;;;;;;;;;;;;;;;-144.99;98.66;52333.94;5034443;28;20002;-71
2021/09/02 03:19:32;;;;;;;;;;;;;;;-144.99;98.63;52333.94;5032628;28;19980;-71
2021/09/02 03:21:59;;;;;;;;;;;;;;;-144.99;98.87;52325.81;5056301;28;19987;-72
2021/09/02 03:24:26;;;;;;;;;;;;;;;-144.99;98.84;52329.88;5051659;28;20346;-72
2021/09/02 03:26:52;;;;;;;;;;;;;;;-144.99;98.86;52317.66;5050549;28;20479;-64
2021/09/02 03:29:19;;;;;;;;;;;;;;;-144.99;98.65;52354.34;5051132;28;19979;-64
2021/09/02 03:31:45;;;;;;;;;;;;;;;-144.99;98.70;52293.19;5058888;28;20167;-66
2021/09/02 03:34:11;;;;;;;;;;;;;;;-144.99;99.01;52297.25;5045968;28;19973;-66
2021/09/02 03:36:38;;;;;;;;;;;;;;;-144.99;99.54;52338.03;5030906;28;19999;-66
2021/09/02 03:39:04;;;;;;;;;;;;;;;-144.99;99.19;52336.00;5036637;28;20011;-68
2021/09/02 03:41:32;;;;;;;;;;;;;;;-144.99;99.24;52325.81;5031064;28;19979;-65
2021/09/02 03:43:58;;;;;;;;;;;;;;;-144.99;99.36;52307.47;5031067;28;19980;-66
2021/09/02 03:46:25;;;;;;;;;;;;;;;-144.99;99.33;52285.03;5030190;28;19983;-65
2021/09/02 03:48:51;;;;;;;;;;;;;;;-144.99;99.27;52293.19;5030495;28;19987;-65
2021/09/02 03:51:17;;;;;;;;;;;;;;;-144.99;99.38;52329.88;5030712;28;19954;-68
2021/09/02 03:53:44;;;;;;;;;;;;;;;-144.99;99.18;52268.72;5031308;28;20344;-72
2021/09/02 03:56:10;;;;;;;;;;;;;;;-144.99;99.19;52313.56;5048607;28;19991;-72
2021/09/02 03:58:38;;;;;;;;;;;;;;;-144.99;99.33;52342.09;5040221;28;19999;-72
2021/09/02 04:01:04;;;;;;;;;;;;;;;-144.99;99.35;52350.25;5034663;28;19990;-71
2021/09/02 04:03:30;;;;;;;;;;;;;;;-144.99;99.43;52276.88;5055069;28;19985;-71
2021/09/02 04:05:57;;;;;;;;;;;;;;;-144.99;99.52;52350.25;5055815;28;19954;-71
2021/09/02 04:08:23;;;;;;;;;;;;;;;-144.99;99.45;52317.66;5041736;28;19962;-71
2021/09/02 04:10:50;;;;;;;;;;;;;;;-144.99;99.53;52323.75;5051322;28;20054;-72
2021/09/02 04:13:17;;;;;;;;;;;;;;;-144.99;99.51;52305.41;5030275;28;19979;-72
2021/09/02 04:15:45;;;;;;;;;;;;;;;-144.99;99.53;52338.03;5029868;28;20003;-73
2021/09/02 04:18:11;;;;;;;;;;;;;;;-144.99;99.77;52317.66;5033285;28;19991;-71
2021/09/02 04:20:37;;;;;;;;;;;;;;;-144.99;99.46;52329.88;5043089;28;19986;-73
2021/09/02 04:23:04;;;;;;;;;;;;;;;-144.99;99.66;52338.03;5039667;28;20072;-73
2021/09/02 04:25:30;;;;;;;;;;;;;;;-144.99;99.45;52329.88;5037277;28;19971;-74
2021/09/02 04:27:57;;;;;;;;;;;;;;;-144.99;99.52;52342.09;5039532;28;19996;-73
2021/09/02 04:30:23;;;;;;;;;;;;;;;-144.99;99.57;52309.50;5047620;28;19980;-72
2021/09/02 04:32:51;;;;;;;;;;;;;;;-144.99;99.22;52321.72;5050906;28;19987;-73
2021/09/02 04:35:17;;;;;;;;;;;;;;;-144.99;99.56;52340.06;5031997;28;19983;-73
2021/09/02 04:37:44;;;;;;;;;;;;;;;-144.99;99.85;52293.19;5033173;28;20382;-72
2021/09/02 04:40:11;;;;;;;;;;;;;;;-144.99;99.73;52311.53;5044677;28;20063;-72
2021/09/02 04:42:37;;;;;;;;;;;;;;;-144.99;99.57;52287.06;5035709;28;19980;-73
2021/09/02 04:45:04;;;;;;;;;;;;;;;-144.99;99.66;52333.94;5042786;28;19979;-73
2021/09/02 04:47:30;;;;;;;;;;;;;;;-144.99;99.83;52264.66;5038166;28;19995;-74
2021/09/02 04:49:58;;;;;;;;;;;;;;;-144.99;99.89;52303.38;5043249;28;19979;-73
2021/09/02 04:52:25;;;;;;;;;;;;;;;-144.99;100.00;52297.25;5043042;28;19976;-72
2021/09/02 04:54:51;;;;;;;;;;;;;;;-144.99;100.00;52321.72;5037173;28;19995;-72
2021/09/02 04:57:18;;;;;;;;;;;;;;;-144.99;100.00;52283.00;5056747;28;20099;-72
2021/09/02 04:59:45;;;;;;;;;;;;;;;-144.99;100.00;52307.47;5069331;22;19963;-70
2021/09/02 05:02:11;;;;;;;;;;;;;;;-144.99;100.00;52293.19;5066106;28;19974;-71
2021/09/02 05:04:37;;;;;;;;;;;;;;;-144.99;100.00;52311.53;5058576;28;20067;-70
2021/09/02 05:07:05;;;;;;;;;;;;;;;-144.99;100.00;52297.25;5064416;28;19970;-71
2021/09/02 05:09:32;;;;;;;;;;;;;;;-144.99;100.00;52350.25;5056843;28;19974;-71
2021/09/02 05:11:58;;;;;;;;;;;;;;;-144.99;99.90;52315.59;5049605;28;20002;-69
2021/09/02 05:14:24;;;;;;;;;;;;;;;-144.99;99.74;52305.41;4349624;28;10000526;-69
2021/09/02 05:16:51;;;;;;;;;;;;;;;-144.99;99.49;52321.72;5046306;28;20026;-68
2021/09/02 05:19:17;;;;;;;;;;;;;;;-144.99;99.33;52297.25;5047350;28;19960;-69
2021/09/02 05:21:43;;;;;;;;;;;;;;;-144.99;99.39;52329.88;5054892;28;19979;-69
2021/09/02 05:24:11;;;;;;;;;;;;;;;-144.99;99.35;52317.66;5050457;28;19982;-69
2021/09/02 05:26:37;;;;;;;;;;;;;;;-144.99;99.11;52321.72;5050100;28;20082;-68
2021/09/02 05:29:04;;;;;;;;;;;;;;;-144.99;98.87;52309.50;5050027;28;19988;-69
2021/09/02 05:31:30;;;;;;;;;;;;;;;-144.99;98.62;52329.88;5058768;28;19986;-69
2021/09/02 05:33:56;;;;;;;;;;;;;;;-144.99;98.41;52280.97;5057479;28;20053;-69
2021/09/02 05:36:23;;;;;;;;;;;;;;;-144.99;98.33;52285.03;5048969;28;19999;-69
2021/09/02 05:38:49;;;;;;;;;;;;;;;-144.99;98.49;52305.41;5043670;28;20018;-69
2021/09/02 05:41:17;;;;;;;;;;;;;;;-144.99;98.48;52319.69;5049365;28;20206;-70
2021/09/02 05:43:43;;;;;;;;;;;;;;;-144.99;98.53;52305.41;5048825;28;20000;-69
2021/09/02 05:46:09;;;;;;;;;;;;;;;-144.99;98.68;52321.72;5049885;28;19979;-69
2021/09/02 05:48:36;;;;;;;;;;;;;;;-144.99;98.81;52311.53;5049342;28;19999;-70
2021/09/02 05:51:02;;;;;;;;;;;;;;;-144.99;98.52;52285.03;5049197;28;20168;-69
2021/09/02 05:53:29;;;;;;;;;;;;;;;-144.99;98.37;52317.66;5049041;28;19996;-70
2021/09/02 05:55:55;;;;;;;;;;;;;;;-144.99;97.95;52329.88;5057019;28;20360;-68
2021/09/02 05:58:23;;;;;;;;;;;;;;;-144.99;98.25;52350.25;5049211;28;20009;-69
2021/09/02 06:00:49;;;;;;;;;;;;;;;-144.99;98.23;52309.50;5048929;28;20070;-68
2021/09/02 06:03:15;;;;;;;;;;;;;;;-144.99;98.34;52293.19;5054565;28;19983;-67
2021/09/02 06:05:42;;;;;;;;;;;;;;;-144.99;98.28;52309.50;5055023;28;19989;-69
2021/09/02 06:08:08;;;;;;;;;;;;;;;-144.99;97.93;52346.19;5053497;28;20002;-69
2021/09/02 06:10:34;;;;;;;;;;;;;;;-144.99;97.93;52287.06;5041416;28;20453;-69
2021/09/02 06:13:01;;;;;;;;;;;;;;;-144.99;97.99;52297.25;5045759;28;19986;-68
2021/09/02 06:15:29;;;;;;;;;;;;;;;-144.99;98.32;52293.19;5042454;28;19974;-70
2021/09/02 06:17:56;;;;;;;;;;;;;;;-144.99;98.25;52317.66;5049624;28;19975;-70
2021/09/02 06:20:24;;;;;;;;;;;;;;;-144.99;98.38;52297.25;5055110;28;20580;-69
2021/09/02 06:22:51;;;;;;;;;;;;;;;-144.99;98.56;52325.81;5048269;28;19983;-69
2021/09/02 06:25:17;;;;;;;;;;;;;;;-144.99;98.24;52301.34;5048300;28;19961;-70
2021/09/02 06:27:43;;;;;;;;;;;;;;;-144.99;97.97;52317.66;5048130;28;19994;-69
2021/09/02 06:30:10;;;;;;;;;;;;;;;-144.99;97.70;52352.28;5052368;28;20368;-69
2021/09/02 06:32:38;;;;;;;;;;;;;;;-144.99;97.69;52325.81;5054153;28;19974;-68
2021/09/02 06:35:04;;;;;;;;;;;;;;;-144.99;98.09;52293.19;5052546;28;19978;-69
2021/09/02 06:37:31;;;;;;;;;;;;;;;-144.99;98.31;52309.50;5046942;28;19997;-69
2021/09/02 06:39:57;;;;;;;;;;;;;;;-144.99;97.97;52313.56;5044324;28;19969;-70
2021/09/02 06:42:24;;;;;;;;;;;;;;;-144.99;97.90;52297.25;5048426;28;19929;-69
2021/09/02 06:44:50;;;;;;;;;;;;;;;-144.99;97.80;52287.06;5048692;28;19982;-69
2021/09/02 06:47:16;;;;;;;;;;;;;;;-144.99;97.67;52301.34;5048705;28;20087;-68
2021/09/02 06:49:44;;;;;;;;;;;;;;;-144.99;97.74;52297.25;5048085;28;19983;-69
2021/09/02 06:52:10;;;;;;;;;;;;;;;-144.99;97.56;52323.75;5048405;28;20390;-69
2021/09/02 06:54:37;;;;;;;;;;;;;;;-144.99;97.41;52311.53;5048174;28;19983;-68
2021/09/02 06:57:03;;;;;;;;;;;;;;;-144.99;96.82;52305.41;5056281;28;20045;-68
2021/09/02 06:59:29;;;;;;;;;;;;;;;-144.99;97.15;52307.47;5047695;28;19982;-68
2021/09/02 07:01:56;;;;;;;;;;;;;;;-144.99;97.01;52293.19;5051292;28;19981;-70
2021/09/02 07:04:22;;;;;;;;;;;;;;;-144.99;97.03;52268.72;5057256;28;20005;-68
2021/09/02 07:06:50;;;;;;;;;;;;;;;-144.99;96.54;52299.31;5052113;28;19995;-70
2021/09/02 07:09:16;;;;;;;;;;;;;;;-144.99;96.35;52278.91;5051824;28;19975;-68
2021/09/02 07:11:43;;;;;;;;;;;;;;;-144.99;96.32;52301.34;5037531;28;19979;-69
2021/09/02 07:14:09;;;;;;;;;;;;;;;-144.99;96.30;52321.72;5038585;28;19989;-69
2021/09/02 07:16:35;;;;;;;;;;;;;;;-144.99;96.03;52280.97;5047048;28;19998;-69
2021/09/02 07:19:02;;;;;;;;;;;;;;;-144.99;96.14;52293.19;5048985;28;19978;-68
2021/09/02 07:21:28;;;;;;;;;;;;;;;-144.99;95.95;52276.88;5054531;28;19985;-69
2021/09/02 07:23:56;;;;;;;;;;;;;;;-144.99;95.46;52276.88;5047424;28;19983;-69
2021/09/02 07:26:22;;;;;;;;;;;;;;;-144.99;95.07;52260.56;5047648;28;20051;-69
2021/09/02 07:28:49;;;;;;;;;;;;;;;-144.99;94.59;52272.81;5047067;28;19925;-69
2021/09/02 07:31:15;;;;;;;;;;;;;;;-144.99;94.21;52297.25;5046899;28;19976;-69
2021/09/02 07:33:41;;;;;;;;;;;;;;;-144.99;93.70;52252.44;5056831;28;19974;-70
2021/09/02 07:36:08;;;;;;;;;;;;;;;-144.99;93.87;52297.25;5047174;28;19999;-69
2021/09/02 07:38:34;;;;;;;;;;;;;;;-144.99;93.87;52268.72;5042166;28;20200;-69
2021/09/02 07:41:02;;;;;;;;;;;;;;;-144.99;93.29;52293.19;5046909;28;20444;-70
2021/09/02 07:43:29;;;;;;;;;;;;;;;-144.99;92.80;52276.88;5046752;28;20005;-69
2021/09/02 07:45:55;;;;;;;;;;;;;;;-144.99;91.60;52262.63;5047502;28;19983;-70
2021/09/02 07:48:22;;;;;;;;;;;;;;;-144.99;91.04;52291.16;5048185;28;19975;-69
2021/09/02 07:50:48;;;;;;;;;;;;;;;-144.99;88.97;52289.13;5048074;28;20038;-69
2021/09/02 07:53:14;;;;;;;;;;;;;;;-144.99;88.38;52293.19;5048842;28;19962;-70
2021/09/02 07:55:41;;;;;;;;;;;;;;;-144.99;88.37;52264.66;5054531;28;19990;-69
2021/09/02 07:58:08;;;;;;;;;;;;;;;-144.99;87.79;52280.97;5047293;28;20001;-70
2021/09/02 08:00:37;;;;;;;;;;;;;;;-144.99;87.10;52305.41;5048291;28;19991;-69
2021/09/02 08:03:03;;;;;;;;;;;;;;;-144.99;86.41;52289.13;5056269;28;20364;-69
2021/09/02 08:05:30;;;;;;;;;;;;;;;-144.99;85.54;52293.19;5056963;28;19975;-70
2021/09/02 08:07:56;;;;;;;;;;;;;;;-144.99;83.85;52305.41;5061343;28;19989;-69
2021/09/02 08:10:23;;;;;;;;;;;;;;;-144.99;82.34;52244.28;5041790;28;20428;-70
2021/09/02 08:12:50;;;;;;;;;;;;;;;-144.99;82.24;52283.00;5044798;28;20078;-70
2021/09/02 08:15:19;;;;;;;;;;;;;;;-144.99;81.77;52280.97;5039316;28;19989;-70
2021/09/02 08:17:46;;;;;;;;;;;;;;;-144.99;81.38;52285.03;5048073;28;20241;-70
2021/09/02 08:20:13;;;;;;;;;;;;;;;-144.99;81.61;52260.56;5053083;28;19979;-69
2021/09/02 08:22:40;;;;;;;;;;;;;;;-144.99;81.38;52250.38;5046614;28;19984;-69
2021/09/02 08:25:08;;;;;;;;;;;;;;;-144.99;80.71;52264.66;5046695;28;20112;-69
2021/09/02 08:27:34;;;;;;;;;;;;;;;-144.99;80.32;52264.66;5046657;28;19997;-69
2021/09/02 08:30:01;;;;;;;;;;;;;;;-144.99;80.08;52276.88;5051044;28;20311;-69
2021/09/02 08:32:28;;;;;;;;;;;;;;;-144.99;79.56;52252.44;5062204;28;19975;-69
2021/09/02 08:34:55;;;;;;;;;;;;;;;-144.99;79.23;52260.56;5051944;28;19998;-69
2021/09/02 08:37:21;;;;;;;;;;;;;;;-144.99;78.69;52305.41;5045996;28;20092;-68
2021/09/02 08:39:48;;;;;;;;;;;;;;;-144.99;78.58;52280.97;5041219;28;19982;-68
2021/09/02 08:42:14;;;;;;;;;;;;;;;-144.99;78.36;52270.78;5046075;28;20419;-68
2021/09/02 08:44:41;;;;;;;;;;;;;;;-144.99;78.01;52248.34;5046025;28;19987;-69
2021/09/02 08:47:07;;;;;;;;;;;;;;;-144.99;77.94;52240.19;5046010;28;20383;-70
2021/09/02 08:49:35;;;;;;;;;;;;;;;-144.99;77.81;52260.56;5045779;28;20514;-69
2021/09/02 08:52:01;;;;;;;;;;;;;;;-144.99;77.27;52268.72;5046351;28;19991;-69
2021/09/02 08:54:27;;;;;;;;;;;;;;;-144.99;77.28;52276.88;5046943;28;19980;-68
2021/09/02 08:56:54;;;;;;;;;;;;;;;-144.99;76.96;52270.78;5058265;28;20003;-68
2021/09/02 08:59:21;;;;;;;;;;;;;;;-144.99;76.67;52289.13;5050260;28;19990;-68
2021/09/02 09:01:48;;;;;;;;;;;;;;;-144.99;76.55;52240.19;5054718;28;20012;-68
2021/09/02 09:04:14;;;;;;;;;;;;;;;-144.99;76.31;52268.72;5060418;28;19978;-68
2021/09/02 09:06:42;;;;;;;;;;;;;;;-144.99;76.53;52293.19;5045873;28;20044;-68
2021/09/02 09:09:11;;;;;;;;;;;;;;;-144.99;76.78;52260.56;5058478;28;19979;-69
2021/09/02 09:11:46;;;;;;;;;;;;;;;-144.99;76.31;52262.63;5039727;28;19988;-68
2021/09/02 09:14:14;;;;;;;;;;;;;;;-144.99;76.13;52244.28;5049331;28;20098;-69
2021/09/02 09:16:44;;;;;;;;;;;;;;;-144.99;76.30;52285.03;5049263;28;20038;-69
2021/09/02 09:19:11;;;;;;;;;;;;;;;-144.99;76.54;52305.41;5050739;28;20030;-70
2021/09/02 09:21:37;;;;;;;;;;;;;;;-144.99;76.50;52227.97;5056145;28;19975;-69
2021/09/02 09:24:06;;;;;;;;;;;;;;;-144.99;75.98;52256.50;5049833;28;20378;-69
2021/09/02 09:26:33;;;;;;;;;;;;;;;-144.99;75.31;52250.38;5050009;28;19991;-68
2021/09/02 09:29:00;;;;;;;;;;;;;;;-144.99;74.62;52283.00;5049224;28;19980;-69
2021/09/02 09:31:28;;;;;;;;;;;;;;;-144.99;75.01;52244.28;5058987;28;19979;-69
2021/09/02 09:33:55;;;;;;;;;;;;;;;-144.99;74.47;52260.56;5057321;28;19976;-69
2021/09/02 09:36:22;;;;;;;;;;;;;;;-144.99;74.77;52287.06;5049017;28;19991;-68
2021/09/02 09:38:57;;;;;;;;;;;;;;;-144.99;74.94;52278.91;5048880;28;20406;-68
2021/09/02 09:41:31;;;;;;;;;;;;;;;-144.99;74.70;52280.97;5049655;28;19992;-70
2021/09/02 09:44:12;;;;;;;;;;;;;;;-144.99;74.39;52248.34;5049336;28;20058;-69
2021/09/02 09:46:39;;;;;;;;;;;;;;;-144.99;74.48;52285.03;5048909;28;20305;-69
2021/09/02 09:49:05;;;;;;;;;;;;;;;-144.99;74.13;52276.88;5049576;28;20355;-69
2021/09/02 09:51:31;;;;;;;;;;;;;;;-144.99;72.97;52272.81;5048993;28;19982;-68
2021/09/02 09:53:58;;;;;;;;;;;;;;;-144.99;74.00;52287.06;5049369;28;20082;-67
2021/09/02 09:56:26;;;;;;;;;;;;;;;-144.99;74.37;52297.25;5057309;28;20007;-69
2021/09/02 09:58:55;;;;;;;;;;;;;;;-144.99;74.60;52268.72;5048806;28;19960;-69
2021/09/02 10:01:21;;;;;;;;;;;;;;;-144.99;74.83;52244.28;5047453;28;20052;-69
2021/09/02 10:03:51;;;;;;;;;;;;;;;-144.99;74.50;52266.69;5060640;28;19948;-68
2021/09/02 10:06:18;;;;;;;;;;;;;;;-144.99;74.12;52260.56;5042681;28;19990;-68
2021/09/02 10:08:45;;;;;;;;;;;;;;;-144.99;74.51;52272.81;5061137;28;19976;-68
2021/09/02 10:11:12;;;;;;;;;;;;;;;-144.99;74.91;52276.88;5038389;28;19985;-68
2021/09/02 10:13:39;;;;;;;;;;;;;;;-144.99;75.19;52280.97;5041594;28;20039;-68
2021/09/02 10:16:07;;;;;;;;;;;;;;;-144.99;75.54;52268.72;5048132;28;19983;-68
2021/09/02 10:18:35;;;;;;;;;;;;;;;-144.99;75.45;52268.72;5050581;28;19995;-69
2021/09/02 10:21:02;;;;;;;;;;;;;;;-144.99;75.67;52276.88;5055832;28;20425;-68
2021/09/02 10:23:29;;;;;;;;;;;;;;;-144.99;75.85;52297.25;5051989;28;19983;-71
2021/09/02 10:25:55;;;;;;;;;;;;;;;-144.99;75.44;52270.78;5051062;28;19984;-68
2021/09/02 10:28:29;;;;;;;;;;;;;;;-144.99;74.97;52256.50;5049813;28;20007;-68
2021/09/02 10:30:56;;;;;;;;;;;;;;;-144.99;74.98;52289.13;5048516;28;19977;-71
2021/09/02 10:33:31;;;;;;;;;;;;;;;-144.99;74.75;52240.19;5058103;28;19982;-69
2021/09/02 10:35:58;;;;;;;;;;;;;;;-144.99;74.23;52276.88;5051351;28;19982;-69
2021/09/02 10:38:36;;;;;;;;;;;;;;;-144.99;74.11;52268.72;5044328;28;20440;-69
2021/09/02 10:41:02;;;;;;;;;;;;;;;-144.99;73.88;52272.81;5049065;28;19980;-68
2021/09/02 10:43:45;;;;;;;;;;;;;;;-144.99;73.76;52244.28;5049879;28;20340;-68
2021/09/02 10:46:23;;;;;;;;;;;;;;;-144.99;73.22;52268.72;5048941;28;20581;-69
2021/09/02 10:48:51;;;;;;;;;;;;;;;-144.99;73.47;52256.50;5050271;28;20006;-68
2021/09/02 10:51:33;;;;;;;;;;;;;;;-144.99;72.93;52227.97;5049271;28;19959;-68
2021/09/02 10:54:01;;;;;;;;;;;;;;;-144.99;72.75;52248.34;5049570;28;20448;-69
2021/09/02 10:56:31;;;;;;;;;;;;;;;-144.99;72.69;52260.56;5058081;28;19981;-69
2021/09/02 10:58:57;;;;;;;;;;;;;;;-144.99;72.22;52223.88;5066106;22;19973;-73
2021/09/02 11:01:27;;;;;;;;;;;;;;;-144.99;72.78;52248.34;5084006;28;20418;-75
2021/09/02 11:03:56;;;;;;;;;;;;;;;-144.99;72.61;52260.56;5084229;28;20045;-76
2021/09/02 11:06:22;;;;;;;;;;;;;;;-144.99;72.61;52227.97;5087530;28;20087;-76
2021/09/02 11:08:49;;;;;;;;;;;;;;;-144.99;72.25;52244.28;5075948;28;19978;-75
2021/09/02 11:11:16;;;;;;;;;;;;;;;-144.99;72.64;52258.53;5087717;28;20340;-74
2021/09/02 11:13:43;;;;;;;;;;;;;;;-144.99;72.53;52236.13;5088701;28;19978;-75
2021/09/02 11:16:10;;;;;;;;;;;;;;;-144.99;72.70;52301.34;5088474;28;19969;-74
2021/09/02 11:18:43;;;;;;;;;;;;;;;-144.99;72.72;52225.94;5085286;28;20352;-74
2021/09/02 11:21:14;;;;;;;;;;;;;;;-144.99;72.34;52268.72;5075643;28;20332;-74
2021/09/02 11:23:44;;;;;;;;;;;;;;;-144.99;72.12;52297.25;5082074;28;20272;-74
2021/09/02 11:26:11;;;;;;;;;;;;;;;-144.99;71.94;52268.72;5077192;28;19998;-74
2021/09/02 11:28:47;;;;;;;;;;;;;;;-144.99;71.92;52242.22;5086072;28;19998;-74
2021/09/02 11:31:13;;;;;;;;;;;;;;;-144.99;71.32;52268.72;5074136;28;20008;-74
2021/09/02 11:33:44;;;;;;;;;;;;;;;-144.99;70.26;52256.50;5077216;28;19973;-74
2021/09/02 11:36:11;;;;;;;;;;;;;;;-144.99;70.17;52260.56;5076362;28;19978;-74
2021/09/02 11:38:40;;;;;;;;;;;;;;;-144.99;70.26;52244.28;5085942;28;20423;-74
2021/09/02 11:41:07;;;;;;;;;;;;;;;-144.99;70.02;52264.66;5088899;28;19969;-74
2021/09/02 11:43:37;;;;;;;;;;;;;;;-144.99;69.79;52215.75;5088790;28;19961;-74
2021/09/02 11:46:05;;;;;;;;;;;;;;;-144.99;69.37;52227.97;5088326;28;19966;-74
2021/09/02 11:48:43;;;;;;;;;;;;;;;-144.99;69.20;52276.88;5081309;28;19963;-74
2021/09/02 11:51:10;;;;;;;;;;;;;;;-144.99;69.82;52252.44;5080812;28;19946;-74
2021/09/02 11:53:36;;;;;;;;;;;;;;;-144.99;69.05;52240.19;5076584;28;20085;-75
2021/09/02 11:56:16;;;;;;;;;;;;;;;-144.99;69.25;52268.72;5080666;28;20372;-75
2021/09/02 11:58:43;;;;;;;;;;;;;;;-144.99;69.65;52297.25;5077647;28;20478;-74
2021/09/02 12:01:09;;;;;;;;;;;;;;;-144.99;70.06;52268.72;5085245;28;19971;-74
2021/09/02 12:03:36;;;;;;;;;;;;;;;-144.99;70.16;52280.97;5087160;28;19968;-74
2021/09/02 12:06:03;;;;;;;;;;;;;;;-144.99;70.21;52276.88;5087381;28;19956;-75
2021/09/02 12:08:30;;;;;;;;;;;;;;;-144.99;70.46;52285.03;5072574;28;20359;-75
2021/09/02 12:10:56;;;;;;;;;;;;;;;-144.99;70.58;52293.19;5087839;28;20328;-74
2021/09/02 12:13:26;;;;;;;;;;;;;;;-144.99;70.54;52258.53;5089146;28;20594;-74
2021/09/02 12:16:02;;;;;;;;;;;;;;;-144.99;70.68;52264.66;5075129;28;19967;-75
2021/09/02 12:18:30;;;;;;;;;;;;;;;-144.99;70.51;52270.78;5075845;28;19989;-74
2021/09/02 12:21:06;;;;;;;;;;;;;;;-144.99;70.47;52256.50;5084589;28;19969;-75
2021/09/02 12:23:41;;;;;;;;;;;;;;;-144.99;70.37;52244.28;5101266;28;19983;-75
2021/09/02 12:26:07;;;;;;;;;;;;;;;-144.99;70.46;52264.66;5096593;28;20033;-75